This is the latest recevied weather packets stored in our database for station/object OH6DL-15. If no packets are shown the sender has not sent any weather packets the latest 10 day(s).
| Time | Temp. | Humidity | Pressure | Rain* | Wind** | Luminosity | Snow |
|---|---|---|---|---|---|---|---|
| 1777642563 | 18.33° C | 39% | 1015 hPa | 0 mm | - | - | - |
| 1777640404 | 17.78° C | 41% | 1015.2 hPa | 0 mm | - | - | - |
| 1777638963 | 17.78° C | 41% | 1015.5 hPa | 0 mm | - | - | - |
| 1777638423 | 17.22° C | 42% | 1015.5 hPa | 0 mm | - | - | - |
| 1777635904 | 16.11° C | 50% | 1015.9 hPa | 0 mm | - | - | - |
| 1777632303 | 15.56° C | 50% | 1016.1 hPa | 0 mm | - | - | - |
| 1777629244 | 15° C | 54% | 1016.6 hPa | 0 mm | - | - | - |
| 1777628704 | 15° C | 55% | 1016.8 hPa | 0 mm | - | - | - |
| 1777622403 | 11.67° C | 68% | 1017.8 hPa | 0 mm | - | - | - |
| 1777617904 | 9.44° C | 77% | 1017.9 hPa | 0 mm | - | - | - |
| 1777617363 | 8.89° C | 78% | 1017.8 hPa | 0 mm | - | - | - |
| 1777616823 | 8.89° C | 79% | 1017.9 hPa | 0 mm | - | - | - |
| 1777611603 | 6.11° C | 90% | 1017.9 hPa | 0 mm | - | - | - |
| 1777610163 | 5.56° C | 92% | 1018.3 hPa | 0 mm | - | - | - |
| 1777608544 | 4.44° C | 98% | 1018.3 hPa | 0 mm | - | - | - |
| 1777605483 | 3.89° C | 99% | 1018.4 hPa | 0 mm | - | - | - |
| 1777601475 | 3.33° C | 99% | 1018.9 hPa | 0 mm | - | - | - |
| 1777596843 | 4.44° C | 98% | 1018.8 hPa | 0 mm | - | - | - |
| 1777595763 | 4.44° C | 96% | 1018.9 hPa | 0 mm | - | - | - |
| 1777593244 | 5.56° C | 93% | 1018.9 hPa | 0 mm | - | - | - |
| 1777589643 | 6.67° C | 90% | 1019.2 hPa | 0 mm | - | - | - |
| 1777586176 | 7.22° C | 86% | 1019.2 hPa | 0 mm | - | - | - |
| 1777581903 | 9.44° C | 77% | 1019 hPa | 0 mm | - | - | - |
| 1777581363 | 10° C | 76% | 1019.2 hPa | 0 mm | - | - | - |
| 1777579744 | 11.11° C | 70% | 1018.9 hPa | 0 mm | - | - | - |
* Rain latest hour (hover to see other rain measurements)
** Current wind speed in m/s (hover to see current wind gust speed)